sensor_id;sensor_type;location;lat;lon;timestamp;P1;durP1;ratioP1;P2;durP2;ratioP2
2021;SDS011;1015;49.756;6.994;2022-11-21T00:00:22;8.40;;;4.80;;
2021;SDS011;1015;49.756;6.994;2022-11-21T00:02:50;9.70;;;4.50;;
2021;SDS011;1015;49.756;6.994;2022-11-21T00:05:17;9.13;;;4.23;;
2021;SDS011;1015;49.756;6.994;2022-11-21T00:07:46;8.43;;;3.77;;
2021;SDS011;1015;49.756;6.994;2022-11-21T00:10:14;10.23;;;3.47;;
2021;SDS011;1015;49.756;6.994;2022-11-21T00:12:42;6.93;;;3.73;;
2021;SDS011;1015;49.756;6.994;2022-11-21T00:15:09;15.20;;;4.27;;
2021;SDS011;1015;49.756;6.994;2022-11-21T00:17:36;9.43;;;4.03;;
2021;SDS011;1015;49.756;6.994;2022-11-21T00:20:03;13.83;;;4.00;;
2021;SDS011;1015;49.756;6.994;2022-11-21T00:22:31;7.67;;;3.70;;
2021;SDS011;1015;49.756;6.994;2022-11-21T00:24:59;13.63;;;4.20;;
2021;SDS011;1015;49.756;6.994;2022-11-21T00:27:26;14.70;;;4.80;;
2021;SDS011;1015;49.756;6.994;2022-11-21T00:29:53;12.23;;;4.83;;
2021;SDS011;1015;49.756;6.994;2022-11-21T00:32:20;8.93;;;5.10;;
2021;SDS011;1015;49.756;6.994;2022-11-21T00:34:47;10.07;;;4.87;;
2021;SDS011;1015;49.756;6.994;2022-11-21T00:37:14;15.33;;;4.97;;
2021;SDS011;1015;49.756;6.994;2022-11-21T00:39:41;7.20;;;4.73;;
2021;SDS011;1015;49.756;6.994;2022-11-21T00:42:10;9.87;;;4.87;;
2021;SDS011;1015;49.756;6.994;2022-11-21T00:44:37;11.77;;;5.30;;
2021;SDS011;1015;49.756;6.994;2022-11-21T00:47:04;12.67;;;5.50;;
2021;SDS011;1015;49.756;6.994;2022-11-21T00:49:31;14.57;;;4.73;;
2021;SDS011;1015;49.756;6.994;2022-11-21T00:51:58;6.53;;;4.00;;
2021;SDS011;1015;49.756;6.994;2022-11-21T00:54:25;7.73;;;3.73;;
2021;SDS011;1015;49.756;6.994;2022-11-21T00:56:52;7.70;;;3.90;;
2021;SDS011;1015;49.756;6.994;2022-11-21T00:59:20;9.83;;;3.93;;
2021;SDS011;1015;49.756;6.994;2022-11-21T01:01:47;7.73;;;3.83;;
2021;SDS011;1015;49.756;6.994;2022-11-21T01:04:14;6.67;;;4.03;;
2021;SDS011;1015;49.756;6.994;2022-11-21T01:06:41;8.17;;;3.80;;
2021;SDS011;1015;49.756;6.994;2022-11-21T01:09:08;10.07;;;4.53;;
2021;SDS011;1015;49.756;6.994;2022-11-21T01:11:35;9.67;;;3.70;;
2021;SDS011;1015;49.756;6.994;2022-11-21T01:14:02;6.97;;;3.10;;
2021;SDS011;1015;49.756;6.994;2022-11-21T01:16:31;8.33;;;3.80;;
2021;SDS011;1015;49.756;6.994;2022-11-21T01:18:58;6.53;;;4.27;;
2021;SDS011;1015;49.756;6.994;2022-11-21T01:21:26;6.63;;;3.97;;
2021;SDS011;1015;49.756;6.994;2022-11-21T01:23:54;6.43;;;3.90;;
2021;SDS011;1015;49.756;6.994;2022-11-21T01:26:24;8.33;;;3.90;;
2021;SDS011;1015;49.756;6.994;2022-11-21T01:28:52;6.27;;;3.70;;
2021;SDS011;1015;49.756;6.994;2022-11-21T01:31:20;6.30;;;3.40;;
2021;SDS011;1015;49.756;6.994;2022-11-21T01:33:50;6.30;;;3.40;;
2021;SDS011;1015;49.756;6.994;2022-11-21T01:36:18;10.33;;;3.03;;
2021;SDS011;1015;49.756;6.994;2022-11-21T01:38:47;4.23;;;2.60;;
2021;SDS011;1015;49.756;6.994;2022-11-21T01:41:15;4.20;;;2.90;;
2021;SDS011;1015;49.756;6.994;2022-11-21T01:43:44;5.70;;;2.80;;
2021;SDS011;1015;49.756;6.994;2022-11-21T01:46:12;6.20;;;3.13;;
2021;SDS011;1015;49.756;6.994;2022-11-21T01:48:42;4.97;;;2.90;;
2021;SDS011;1015;49.756;6.994;2022-11-21T01:51:16;3.47;;;2.77;;
2021;SDS011;1015;49.756;6.994;2022-11-21T01:53:50;8.47;;;3.13;;
2021;SDS011;1015;49.756;6.994;2022-11-21T01:56:21;4.50;;;2.80;;
2021;SDS011;1015;49.756;6.994;2022-11-21T01:58:50;5.40;;;2.97;;
2021;SDS011;1015;49.756;6.994;2022-11-21T02:01:21;3.90;;;2.80;;
2021;SDS011;1015;49.756;6.994;2022-11-21T02:03:48;5.07;;;2.70;;
2021;SDS011;1015;49.756;6.994;2022-11-21T02:06:20;7.03;;;2.63;;
2021;SDS011;1015;49.756;6.994;2022-11-21T02:08:48;5.20;;;2.70;;
2021;SDS011;1015;49.756;6.994;2022-11-21T02:11:16;3.67;;;2.37;;
2021;SDS011;1015;49.756;6.994;2022-11-21T02:13:51;3.93;;;1.90;;
2021;SDS011;1015;49.756;6.994;2022-11-21T02:16:18;4.23;;;2.10;;
2021;SDS011;1015;49.756;6.994;2022-11-21T02:18:45;5.43;;;2.37;;
2021;SDS011;1015;49.756;6.994;2022-11-21T02:21:21;4.23;;;2.40;;
2021;SDS011;1015;49.756;6.994;2022-11-21T02:23:59;3.50;;;1.80;;
2021;SDS011;1015;49.756;6.994;2022-11-21T02:26:31;4.13;;;2.23;;
2021;SDS011;1015;49.756;6.994;2022-11-21T02:29:00;3.50;;;1.90;;
2021;SDS011;1015;49.756;6.994;2022-11-21T02:31:27;3.83;;;2.27;;
2021;SDS011;1015;49.756;6.994;2022-11-21T02:33:54;3.30;;;2.30;;
2021;SDS011;1015;49.756;6.994;2022-11-21T02:39:11;3.00;;;2.10;;
2021;SDS011;1015;49.756;6.994;2022-11-21T02:41:45;4.00;;;2.13;;
2021;SDS011;1015;49.756;6.994;2022-11-21T02:44:19;2.60;;;2.00;;
2021;SDS011;1015;49.756;6.994;2022-11-21T02:46:51;5.30;;;2.10;;
2021;SDS011;1015;49.756;6.994;2022-11-21T02:49:20;2.40;;;2.20;;
2021;SDS011;1015;49.756;6.994;2022-11-21T02:51:54;3.37;;;1.80;;
2021;SDS011;1015;49.756;6.994;2022-11-21T02:54:21;3.60;;;1.93;;
2021;SDS011;1015;49.756;6.994;2022-11-21T02:56:49;4.67;;;2.20;;
2021;SDS011;1015;49.756;6.994;2022-11-21T02:59:16;4.20;;;2.80;;
2021;SDS011;1015;49.756;6.994;2022-11-21T03:01:43;3.57;;;2.27;;
2021;SDS011;1015;49.756;6.994;2022-11-21T03:04:10;7.03;;;3.20;;
2021;SDS011;1015;49.756;6.994;2022-11-21T03:06:37;3.90;;;2.53;;
2021;SDS011;1015;49.756;6.994;2022-11-21T03:09:04;6.80;;;3.00;;
2021;SDS011;1015;49.756;6.994;2022-11-21T03:11:31;7.63;;;3.03;;
2021;SDS011;1015;49.756;6.994;2022-11-21T03:13:59;5.67;;;3.17;;
2021;SDS011;1015;49.756;6.994;2022-11-21T03:16:26;5.67;;;2.70;;
2021;SDS011;1015;49.756;6.994;2022-11-21T03:18:53;5.47;;;2.90;;
2021;SDS011;1015;49.756;6.994;2022-11-21T03:21:22;2.90;;;2.60;;
2021;SDS011;1015;49.756;6.994;2022-11-21T03:23:49;7.50;;;3.13;;
2021;SDS011;1015;49.756;6.994;2022-11-21T03:26:16;6.27;;;3.13;;
2021;SDS011;1015;49.756;6.994;2022-11-21T03:28:43;3.53;;;2.83;;
2021;SDS011;1015;49.756;6.994;2022-11-21T03:31:11;4.30;;;2.93;;
2021;SDS011;1015;49.756;6.994;2022-11-21T03:33:38;5.07;;;2.70;;
2021;SDS011;1015;49.756;6.994;2022-11-21T03:36:05;4.50;;;3.10;;
2021;SDS011;1015;49.756;6.994;2022-11-21T03:38:33;6.27;;;3.00;;
2021;SDS011;1015;49.756;6.994;2022-11-21T03:41:02;6.27;;;3.20;;
2021;SDS011;1015;49.756;6.994;2022-11-21T03:43:30;4.47;;;3.33;;
2021;SDS011;1015;49.756;6.994;2022-11-21T03:45:57;5.53;;;3.30;;
2021;SDS011;1015;49.756;6.994;2022-11-21T03:48:25;4.23;;;3.07;;
2021;SDS011;1015;49.756;6.994;2022-11-21T03:50:52;4.30;;;2.80;;
2021;SDS011;1015;49.756;6.994;2022-11-21T03:53:19;7.03;;;3.53;;
2021;SDS011;1015;49.756;6.994;2022-11-21T03:55:46;4.33;;;2.93;;
2021;SDS011;1015;49.756;6.994;2022-11-21T03:58:13;5.80;;;3.17;;
2021;SDS011;1015;49.756;6.994;2022-11-21T04:00:40;5.30;;;2.93;;
2021;SDS011;1015;49.756;6.994;2022-11-21T04:03:07;7.90;;;3.87;;
2021;SDS011;1015;49.756;6.994;2022-11-21T04:05:35;5.33;;;3.10;;
2021;SDS011;1015;49.756;6.994;2022-11-21T04:08:02;4.00;;;3.00;;
2021;SDS011;1015;49.756;6.994;2022-11-21T04:10:30;7.70;;;3.10;;
2021;SDS011;1015;49.756;6.994;2022-11-21T04:12:57;6.87;;;2.63;;
2021;SDS011;1015;49.756;6.994;2022-11-21T04:15:24;6.77;;;3.10;;
2021;SDS011;1015;49.756;6.994;2022-11-21T04:17:51;5.63;;;3.03;;
2021;SDS011;1015;49.756;6.994;2022-11-21T04:20:17;9.30;;;3.13;;
2021;SDS011;1015;49.756;6.994;2022-11-21T04:22:46;8.87;;;3.60;;
2021;SDS011;1015;49.756;6.994;2022-11-21T04:25:13;5.57;;;2.80;;
2021;SDS011;1015;49.756;6.994;2022-11-21T04:27:40;9.87;;;3.67;;
2021;SDS011;1015;49.756;6.994;2022-11-21T04:30:07;5.13;;;3.23;;
2021;SDS011;1015;49.756;6.994;2022-11-21T04:32:35;6.53;;;3.13;;
2021;SDS011;1015;49.756;6.994;2022-11-21T04:35:02;8.63;;;3.20;;
2021;SDS011;1015;49.756;6.994;2022-11-21T04:37:29;5.37;;;3.20;;
2021;SDS011;1015;49.756;6.994;2022-11-21T04:39:58;4.97;;;3.03;;
2021;SDS011;1015;49.756;6.994;2022-11-21T04:42:25;4.70;;;3.70;;
2021;SDS011;1015;49.756;6.994;2022-11-21T04:44:51;8.57;;;3.53;;
2021;SDS011;1015;49.756;6.994;2022-11-21T04:47:18;5.40;;;3.43;;
2021;SDS011;1015;49.756;6.994;2022-11-21T04:49:45;4.90;;;3.30;;
2021;SDS011;1015;49.756;6.994;2022-11-21T04:52:12;6.80;;;3.90;;
2021;SDS011;1015;49.756;6.994;2022-11-21T04:54:39;8.80;;;3.87;;
2021;SDS011;1015;49.756;6.994;2022-11-21T04:57:08;9.93;;;4.60;;
2021;SDS011;1015;49.756;6.994;2022-11-21T04:59:35;7.57;;;3.50;;
2021;SDS011;1015;49.756;6.994;2022-11-21T05:02:02;8.20;;;3.73;;
2021;SDS011;1015;49.756;6.994;2022-11-21T05:04:29;5.00;;;3.30;;
2021;SDS011;1015;49.756;6.994;2022-11-21T05:06:56;4.93;;;3.90;;
2021;SDS011;1015;49.756;6.994;2022-11-21T05:09:23;9.10;;;3.90;;
2021;SDS011;1015;49.756;6.994;2022-11-21T05:11:50;8.60;;;4.63;;
2021;SDS011;1015;49.756;6.994;2022-11-21T05:14:35;7.23;;;4.17;;
2021;SDS011;1015;49.756;6.994;2022-11-21T05:17:02;6.40;;;4.00;;
2021;SDS011;1015;49.756;6.994;2022-11-21T05:19:29;7.40;;;3.63;;
2021;SDS011;1015;49.756;6.994;2022-11-21T05:21:57;5.70;;;4.00;;
2021;SDS011;1015;49.756;6.994;2022-11-21T05:24:24;7.20;;;4.03;;
2021;SDS011;1015;49.756;6.994;2022-11-21T05:26:51;7.47;;;4.17;;
2021;SDS011;1015;49.756;6.994;2022-11-21T05:29:19;5.23;;;4.03;;
2021;SDS011;1015;49.756;6.994;2022-11-21T05:31:48;9.20;;;4.50;;
2021;SDS011;1015;49.756;6.994;2022-11-21T05:34:15;6.03;;;4.60;;
2021;SDS011;1015;49.756;6.994;2022-11-21T05:36:41;6.50;;;4.10;;
2021;SDS011;1015;49.756;6.994;2022-11-21T05:39:08;7.10;;;4.60;;
2021;SDS011;1015;49.756;6.994;2022-11-21T05:41:35;8.67;;;4.23;;
2021;SDS011;1015;49.756;6.994;2022-11-21T05:44:02;8.40;;;4.80;;
2021;SDS011;1015;49.756;6.994;2022-11-21T05:46:28;6.83;;;4.10;;
2021;SDS011;1015;49.756;6.994;2022-11-21T05:48:57;6.20;;;4.30;;
2021;SDS011;1015;49.756;6.994;2022-11-21T05:51:24;6.80;;;3.90;;
2021;SDS011;1015;49.756;6.994;2022-11-21T05:53:51;6.73;;;4.30;;
2021;SDS011;1015;49.756;6.994;2022-11-21T05:56:18;8.97;;;4.70;;
2021;SDS011;1015;49.756;6.994;2022-11-21T05:58:45;5.67;;;4.23;;
2021;SDS011;1015;49.756;6.994;2022-11-21T06:01:13;6.00;;;4.00;;
2021;SDS011;1015;49.756;6.994;2022-11-21T06:04:01;8.37;;;4.03;;
2021;SDS011;1015;49.756;6.994;2022-11-21T06:06:28;6.63;;;4.30;;
2021;SDS011;1015;49.756;6.994;2022-11-21T06:08:54;14.30;;;4.30;;
2021;SDS011;1015;49.756;6.994;2022-11-21T06:11:21;7.53;;;4.20;;
2021;SDS011;1015;49.756;6.994;2022-11-21T06:13:48;8.00;;;3.77;;
2021;SDS011;1015;49.756;6.994;2022-11-21T06:16:16;7.40;;;3.80;;
2021;SDS011;1015;49.756;6.994;2022-11-21T06:18:44;6.07;;;3.90;;
2021;SDS011;1015;49.756;6.994;2022-11-21T06:21:14;7.57;;;3.87;;
2021;SDS011;1015;49.756;6.994;2022-11-21T06:23:42;5.90;;;4.30;;
2021;SDS011;1015;49.756;6.994;2022-11-21T06:26:11;6.33;;;3.40;;
2021;SDS011;1015;49.756;6.994;2022-11-21T06:28:40;6.50;;;3.97;;
2021;SDS011;1015;49.756;6.994;2022-11-21T06:31:09;5.93;;;3.60;;
2021;SDS011;1015;49.756;6.994;2022-11-21T06:33:37;9.03;;;4.10;;
2021;SDS011;1015;49.756;6.994;2022-11-21T06:36:06;8.33;;;3.90;;
2021;SDS011;1015;49.756;6.994;2022-11-21T06:38:36;7.53;;;3.60;;
2021;SDS011;1015;49.756;6.994;2022-11-21T06:41:03;10.00;;;4.37;;
2021;SDS011;1015;49.756;6.994;2022-11-21T06:43:30;7.73;;;4.00;;
2021;SDS011;1015;49.756;6.994;2022-11-21T06:45:57;6.33;;;3.87;;
2021;SDS011;1015;49.756;6.994;2022-11-21T06:48:27;9.67;;;4.40;;
2021;SDS011;1015;49.756;6.994;2022-11-21T06:50:54;8.37;;;3.80;;
2021;SDS011;1015;49.756;6.994;2022-11-21T06:53:21;9.57;;;3.83;;
2021;SDS011;1015;49.756;6.994;2022-11-21T06:55:49;7.33;;;4.30;;
2021;SDS011;1015;49.756;6.994;2022-11-21T06:58:16;8.10;;;4.00;;
2021;SDS011;1015;49.756;6.994;2022-11-21T07:00:43;6.63;;;3.40;;
2021;SDS011;1015;49.756;6.994;2022-11-21T07:03:12;6.67;;;3.80;;
2021;SDS011;1015;49.756;6.994;2022-11-21T07:05:39;5.10;;;3.63;;
2021;SDS011;1015;49.756;6.994;2022-11-21T07:08:06;8.90;;;3.17;;
2021;SDS011;1015;49.756;6.994;2022-11-21T07:10:33;7.23;;;3.33;;
2021;SDS011;1015;49.756;6.994;2022-11-21T07:13:02;6.10;;;3.27;;
2021;SDS011;1015;49.756;6.994;2022-11-21T07:15:47;7.30;;;4.00;;
2021;SDS011;1015;49.756;6.994;2022-11-21T07:18:16;8.43;;;3.73;;
2021;SDS011;1015;49.756;6.994;2022-11-21T07:20:43;7.17;;;3.33;;
2021;SDS011;1015;49.756;6.994;2022-11-21T07:23:11;5.90;;;3.30;;
2021;SDS011;1015;49.756;6.994;2022-11-21T07:25:38;4.83;;;2.87;;
2021;SDS011;1015;49.756;6.994;2022-11-21T07:28:08;5.40;;;3.80;;
2021;SDS011;1015;49.756;6.994;2022-11-21T07:30:35;7.10;;;3.13;;
2021;SDS011;1015;49.756;6.994;2022-11-21T07:33:03;4.87;;;3.00;;
2021;SDS011;1015;49.756;6.994;2022-11-21T07:35:31;6.90;;;3.00;;
2021;SDS011;1015;49.756;6.994;2022-11-21T07:37:59;5.93;;;3.47;;
2021;SDS011;1015;49.756;6.994;2022-11-21T07:40:26;5.07;;;3.70;;
2021;SDS011;1015;49.756;6.994;2022-11-21T07:42:53;10.10;;;3.17;;
2021;SDS011;1015;49.756;6.994;2022-11-21T07:45:27;8.13;;;3.17;;
2021;SDS011;1015;49.756;6.994;2022-11-21T07:47:57;3.77;;;3.40;;
2021;SDS011;1015;49.756;6.994;2022-11-21T07:50:24;4.77;;;2.90;;
2021;SDS011;1015;49.756;6.994;2022-11-21T07:52:55;5.20;;;2.90;;
2021;SDS011;1015;49.756;6.994;2022-11-21T07:55:23;7.17;;;3.37;;
2021;SDS011;1015;49.756;6.994;2022-11-21T07:57:56;9.00;;;3.07;;
2021;SDS011;1015;49.756;6.994;2022-11-21T08:00:24;3.63;;;2.70;;
2021;SDS011;1015;49.756;6.994;2022-11-21T08:02:53;5.10;;;2.50;;
2021;SDS011;1015;49.756;6.994;2022-11-21T08:05:20;4.50;;;2.83;;
2021;SDS011;1015;49.756;6.994;2022-11-21T08:07:47;4.13;;;2.90;;
2021;SDS011;1015;49.756;6.994;2022-11-21T08:10:14;7.70;;;2.83;;
2021;SDS011;1015;49.756;6.994;2022-11-21T08:12:42;4.60;;;2.93;;
2021;SDS011;1015;49.756;6.994;2022-11-21T08:15:09;5.30;;;2.43;;
2021;SDS011;1015;49.756;6.994;2022-11-21T08:17:36;3.10;;;2.47;;
2021;SDS011;1015;49.756;6.994;2022-11-21T08:20:06;8.20;;;2.73;;
2021;SDS011;1015;49.756;6.994;2022-11-21T08:22:36;4.97;;;2.80;;
2021;SDS011;1015;49.756;6.994;2022-11-21T08:25:05;5.50;;;3.10;;
2021;SDS011;1015;49.756;6.994;2022-11-21T08:27:33;6.33;;;2.73;;
2021;SDS011;1015;49.756;6.994;2022-11-21T08:30:02;5.30;;;3.30;;
2021;SDS011;1015;49.756;6.994;2022-11-21T08:32:31;6.20;;;2.70;;
2021;SDS011;1015;49.756;6.994;2022-11-21T08:34:58;2.83;;;2.50;;
2021;SDS011;1015;49.756;6.994;2022-11-21T08:37:27;5.43;;;2.67;;
2021;SDS011;1015;49.756;6.994;2022-11-21T08:39:54;5.30;;;3.10;;
2021;SDS011;1015;49.756;6.994;2022-11-21T08:42:23;12.80;;;3.50;;
2021;SDS011;1015;49.756;6.994;2022-11-21T08:44:50;4.60;;;3.13;;
2021;SDS011;1015;49.756;6.994;2022-11-21T08:47:17;6.07;;;3.20;;
2021;SDS011;1015;49.756;6.994;2022-11-21T08:49:44;6.63;;;3.77;;
2021;SDS011;1015;49.756;6.994;2022-11-21T08:52:11;9.50;;;3.80;;
2021;SDS011;1015;49.756;6.994;2022-11-21T08:54:40;5.70;;;3.33;;
2021;SDS011;1015;49.756;6.994;2022-11-21T08:57:08;7.70;;;3.70;;
2021;SDS011;1015;49.756;6.994;2022-11-21T08:59:35;6.33;;;3.97;;
2021;SDS011;1015;49.756;6.994;2022-11-21T09:02:02;7.43;;;4.57;;
2021;SDS011;1015;49.756;6.994;2022-11-21T09:04:29;8.40;;;4.17;;
2021;SDS011;1015;49.756;6.994;2022-11-21T09:06:56;8.67;;;4.10;;
2021;SDS011;1015;49.756;6.994;2022-11-21T09:09:23;7.47;;;3.97;;
2021;SDS011;1015;49.756;6.994;2022-11-21T09:11:51;7.23;;;3.70;;
2021;SDS011;1015;49.756;6.994;2022-11-21T09:14:18;7.57;;;3.73;;
2021;SDS011;1015;49.756;6.994;2022-11-21T09:17:05;15.43;;;3.73;;
2021;SDS011;1015;49.756;6.994;2022-11-21T09:19:49;6.07;;;3.20;;
2021;SDS011;1015;49.756;6.994;2022-11-21T09:22:16;5.43;;;3.20;;
2021;SDS011;1015;49.756;6.994;2022-11-21T09:24:43;5.33;;;2.90;;
2021;SDS011;1015;49.756;6.994;2022-11-21T09:27:12;8.40;;;3.10;;
2021;SDS011;1015;49.756;6.994;2022-11-21T09:29:39;9.37;;;3.20;;
2021;SDS011;1015;49.756;6.994;2022-11-21T09:32:06;3.83;;;3.10;;
2021;SDS011;1015;49.756;6.994;2022-11-21T09:34:33;6.53;;;3.00;;
2021;SDS011;1015;49.756;6.994;2022-11-21T09:37:00;8.03;;;3.37;;
2021;SDS011;1015;49.756;6.994;2022-11-21T09:39:26;5.10;;;2.97;;
2021;SDS011;1015;49.756;6.994;2022-11-21T09:41:57;7.43;;;2.80;;
2021;SDS011;1015;49.756;6.994;2022-11-21T09:44:48;6.67;;;3.00;;
2021;SDS011;1015;49.756;6.994;2022-11-21T09:47:24;8.40;;;3.00;;
2021;SDS011;1015;49.756;6.994;2022-11-21T09:49:56;5.00;;;2.40;;
2021;SDS011;1015;49.756;6.994;2022-11-21T09:52:26;5.10;;;2.70;;
2021;SDS011;1015;49.756;6.994;2022-11-21T09:55:02;3.93;;;2.53;;
2021;SDS011;1015;49.756;6.994;2022-11-21T09:57:31;8.50;;;2.70;;
2021;SDS011;1015;49.756;6.994;2022-11-21T10:00:04;3.67;;;2.10;;
2021;SDS011;1015;49.756;6.994;2022-11-21T10:02:39;6.00;;;2.67;;
2021;SDS011;1015;49.756;6.994;2022-11-21T10:05:10;9.13;;;2.73;;
2021;SDS011;1015;49.756;6.994;2022-11-21T10:07:38;3.40;;;2.47;;
2021;SDS011;1015;49.756;6.994;2022-11-21T10:13:05;3.70;;;2.37;;
2021;SDS011;1015;49.756;6.994;2022-11-21T10:15:49;4.50;;;2.50;;
2021;SDS011;1015;49.756;6.994;2022-11-21T10:18:30;6.07;;;2.73;;
2021;SDS011;1015;49.756;6.994;2022-11-21T10:21:19;7.10;;;2.80;;
2021;SDS011;1015;49.756;6.994;2022-11-21T10:24:05;7.10;;;2.10;;
2021;SDS011;1015;49.756;6.994;2022-11-21T10:26:45;6.67;;;2.70;;
2021;SDS011;1015;49.756;6.994;2022-11-21T10:29:18;7.03;;;2.30;;
2021;SDS011;1015;49.756;6.994;2022-11-21T10:31:54;5.63;;;1.90;;
2021;SDS011;1015;49.756;6.994;2022-11-21T10:34:25;4.80;;;2.20;;
2021;SDS011;1015;49.756;6.994;2022-11-21T10:36:56;2.80;;;2.30;;
2021;SDS011;1015;49.756;6.994;2022-11-21T10:39:32;3.03;;;2.17;;
2021;SDS011;1015;49.756;6.994;2022-11-21T10:42:03;4.30;;;2.57;;
2021;SDS011;1015;49.756;6.994;2022-11-21T10:44:37;3.70;;;1.90;;
2021;SDS011;1015;49.756;6.994;2022-11-21T10:47:23;7.97;;;2.40;;
2021;SDS011;1015;49.756;6.994;2022-11-21T10:49:58;4.93;;;2.20;;
2021;SDS011;1015;49.756;6.994;2022-11-21T10:52:30;7.60;;;2.90;;
2021;SDS011;1015;49.756;6.994;2022-11-21T10:55:07;9.27;;;2.53;;
2021;SDS011;1015;49.756;6.994;2022-11-21T10:57:39;4.77;;;2.03;;
2021;SDS011;1015;49.756;6.994;2022-11-21T11:00:13;5.10;;;2.40;;
2021;SDS011;1015;49.756;6.994;2022-11-21T11:03:05;4.43;;;2.57;;
2021;SDS011;1015;49.756;6.994;2022-11-21T11:05:41;9.20;;;2.60;;
2021;SDS011;1015;49.756;6.994;2022-11-21T11:08:20;5.77;;;2.90;;
2021;SDS011;1015;49.756;6.994;2022-11-21T11:11:00;4.67;;;3.10;;
2021;SDS011;1015;49.756;6.994;2022-11-21T11:13:29;7.07;;;2.90;;
2021;SDS011;1015;49.756;6.994;2022-11-21T11:16:02;5.37;;;2.80;;
2021;SDS011;1015;49.756;6.994;2022-11-21T11:18:33;5.50;;;3.10;;
2021;SDS011;1015;49.756;6.994;2022-11-21T11:21:13;6.83;;;2.90;;
2021;SDS011;1015;49.756;6.994;2022-11-21T11:23:42;5.63;;;2.70;;
2021;SDS011;1015;49.756;6.994;2022-11-21T11:26:20;7.37;;;3.10;;
2021;SDS011;1015;49.756;6.994;2022-11-21T11:28:52;7.13;;;2.50;;
2021;SDS011;1015;49.756;6.994;2022-11-21T11:31:38;6.00;;;2.80;;
2021;SDS011;1015;49.756;6.994;2022-11-21T11:34:08;4.43;;;3.00;;
2021;SDS011;1015;49.756;6.994;2022-11-21T11:36:38;6.00;;;2.63;;
2021;SDS011;1015;49.756;6.994;2022-11-21T11:39:16;7.73;;;2.67;;
2021;SDS011;1015;49.756;6.994;2022-11-21T11:42:00;6.60;;;2.77;;
2021;SDS011;1015;49.756;6.994;2022-11-21T11:45:07;6.23;;;2.87;;
2021;SDS011;1015;49.756;6.994;2022-11-21T11:47:59;6.63;;;2.47;;
2021;SDS011;1015;49.756;6.994;2022-11-21T11:50:31;7.07;;;2.97;;
2021;SDS011;1015;49.756;6.994;2022-11-21T11:53:03;6.27;;;2.50;;
2021;SDS011;1015;49.756;6.994;2022-11-21T11:55:36;7.30;;;2.97;;
2021;SDS011;1015;49.756;6.994;2022-11-21T11:58:10;6.67;;;3.13;;
2021;SDS011;1015;49.756;6.994;2022-11-21T12:00:45;6.20;;;2.83;;
2021;SDS011;1015;49.756;6.994;2022-11-21T12:03:18;5.70;;;2.63;;
2021;SDS011;1015;49.756;6.994;2022-11-21T12:05:53;5.77;;;2.70;;
2021;SDS011;1015;49.756;6.994;2022-11-21T12:08:25;5.20;;;2.37;;
2021;SDS011;1015;49.756;6.994;2022-11-21T12:10:59;6.40;;;3.33;;
2021;SDS011;1015;49.756;6.994;2022-11-21T12:13:51;3.17;;;2.70;;
2021;SDS011;1015;49.756;6.994;2022-11-21T12:16:21;5.23;;;3.10;;
2021;SDS011;1015;49.756;6.994;2022-11-21T12:18:52;10.73;;;3.27;;
2021;SDS011;1015;49.756;6.994;2022-11-21T12:21:26;15.30;;;3.53;;
2021;SDS011;1015;49.756;6.994;2022-11-21T12:23:54;5.80;;;2.90;;
2021;SDS011;1015;49.756;6.994;2022-11-21T12:26:27;9.50;;;3.10;;
2021;SDS011;1015;49.756;6.994;2022-11-21T12:29:06;9.13;;;3.17;;
2021;SDS011;1015;49.756;6.994;2022-11-21T12:31:48;9.23;;;3.33;;
2021;SDS011;1015;49.756;6.994;2022-11-21T12:34:27;8.00;;;3.27;;
2021;SDS011;1015;49.756;6.994;2022-11-21T12:37:10;6.93;;;2.53;;
2021;SDS011;1015;49.756;6.994;2022-11-21T12:42:38;6.90;;;2.80;;
2021;SDS011;1015;49.756;6.994;2022-11-21T12:45:23;6.23;;;3.43;;
2021;SDS011;1015;49.756;6.994;2022-11-21T12:48:04;12.20;;;4.20;;
2021;SDS011;1015;49.756;6.994;2022-11-21T12:54:35;9.33;;;3.93;;
2021;SDS011;1015;49.756;6.994;2022-11-21T12:57:20;6.30;;;3.70;;
2021;SDS011;1015;49.756;6.994;2022-11-21T12:59:59;8.00;;;2.93;;
2021;SDS011;1015;49.756;6.994;2022-11-21T13:02:35;6.10;;;2.90;;
2021;SDS011;1015;49.756;6.994;2022-11-21T13:05:17;8.27;;;3.27;;
2021;SDS011;1015;49.756;6.994;2022-11-21T13:07:59;7.33;;;2.93;;
2021;SDS011;1015;49.756;6.994;2022-11-21T13:10:30;7.03;;;3.70;;
2021;SDS011;1015;49.756;6.994;2022-11-21T13:12:58;7.10;;;3.00;;
2021;SDS011;1015;49.756;6.994;2022-11-21T13:15:37;5.90;;;2.90;;
2021;SDS011;1015;49.756;6.994;2022-11-21T13:18:15;6.33;;;2.90;;
2021;SDS011;1015;49.756;6.994;2022-11-21T13:20:48;7.80;;;3.50;;
2021;SDS011;1015;49.756;6.994;2022-11-21T13:23:33;7.73;;;3.60;;
2021;SDS011;1015;49.756;6.994;2022-11-21T13:26:06;5.03;;;3.33;;
2021;SDS011;1015;49.756;6.994;2022-11-21T13:29:12;8.20;;;3.60;;
2021;SDS011;1015;49.756;6.994;2022-11-21T13:31:40;5.47;;;3.10;;
2021;SDS011;1015;49.756;6.994;2022-11-21T13:37:00;7.37;;;3.33;;
2021;SDS011;1015;49.756;6.994;2022-11-21T13:39:29;6.27;;;3.77;;
2021;SDS011;1015;49.756;6.994;2022-11-21T13:42:14;7.97;;;3.60;;
2021;SDS011;1015;49.756;6.994;2022-11-21T13:51:17;7.53;;;3.57;;
2021;SDS011;1015;49.756;6.994;2022-11-21T13:56:59;6.67;;;3.67;;
2021;SDS011;1015;49.756;6.994;2022-11-21T13:59:39;7.60;;;3.43;;
2021;SDS011;1015;49.756;6.994;2022-11-21T14:02:38;7.70;;;3.47;;
2021;SDS011;1015;49.756;6.994;2022-11-21T14:05:32;10.20;;;3.43;;
2021;SDS011;1015;49.756;6.994;2022-11-21T14:08:18;9.17;;;3.50;;
2021;SDS011;1015;49.756;6.994;2022-11-21T14:10:47;6.30;;;3.57;;
2021;SDS011;1015;49.756;6.994;2022-11-21T14:13:18;6.70;;;3.60;;
2021;SDS011;1015;49.756;6.994;2022-11-21T14:15:52;6.33;;;4.10;;
2021;SDS011;1015;49.756;6.994;2022-11-21T14:18:40;9.07;;;4.10;;
2021;SDS011;1015;49.756;6.994;2022-11-21T14:21:16;7.37;;;4.27;;
2021;SDS011;1015;49.756;6.994;2022-11-21T14:23:45;8.23;;;3.63;;
2021;SDS011;1015;49.756;6.994;2022-11-21T14:26:13;7.00;;;4.40;;
2021;SDS011;1015;49.756;6.994;2022-11-21T14:28:44;6.33;;;3.40;;
2021;SDS011;1015;49.756;6.994;2022-11-21T14:31:13;5.63;;;3.33;;
2021;SDS011;1015;49.756;6.994;2022-11-21T14:33:41;6.83;;;3.90;;
2021;SDS011;1015;49.756;6.994;2022-11-21T14:36:11;7.30;;;3.80;;
2021;SDS011;1015;49.756;6.994;2022-11-21T14:38:40;6.03;;;2.97;;
2021;SDS011;1015;49.756;6.994;2022-11-21T14:44:01;8.77;;;3.33;;
2021;SDS011;1015;49.756;6.994;2022-11-21T14:46:41;6.00;;;3.77;;
2021;SDS011;1015;49.756;6.994;2022-11-21T14:49:16;5.20;;;3.90;;
2021;SDS011;1015;49.756;6.994;2022-11-21T14:51:45;12.53;;;4.70;;
2021;SDS011;1015;49.756;6.994;2022-11-21T14:54:15;9.20;;;5.00;;
2021;SDS011;1015;49.756;6.994;2022-11-21T14:56:45;7.60;;;5.00;;
2021;SDS011;1015;49.756;6.994;2022-11-21T14:59:17;12.50;;;5.33;;
2021;SDS011;1015;49.756;6.994;2022-11-21T15:01:57;11.80;;;6.20;;
2021;SDS011;1015;49.756;6.994;2022-11-21T15:04:28;7.67;;;4.70;;
2021;SDS011;1015;49.756;6.994;2022-11-21T15:06:57;10.53;;;5.40;;
2021;SDS011;1015;49.756;6.994;2022-11-21T15:09:24;7.80;;;6.00;;
2021;SDS011;1015;49.756;6.994;2022-11-21T15:11:52;10.30;;;5.80;;
2021;SDS011;1015;49.756;6.994;2022-11-21T15:14:26;11.40;;;6.03;;
2021;SDS011;1015;49.756;6.994;2022-11-21T15:16:59;15.40;;;5.97;;
2021;SDS011;1015;49.756;6.994;2022-11-21T15:19:29;8.70;;;5.10;;
2021;SDS011;1015;49.756;6.994;2022-11-21T15:21:58;9.57;;;6.20;;
2021;SDS011;1015;49.756;6.994;2022-11-21T15:24:29;9.77;;;5.63;;
2021;SDS011;1015;49.756;6.994;2022-11-21T15:27:21;10.70;;;6.43;;
2021;SDS011;1015;49.756;6.994;2022-11-21T15:30:04;8.47;;;5.53;;
2021;SDS011;1015;49.756;6.994;2022-11-21T15:33:09;12.77;;;7.40;;
2021;SDS011;1015;49.756;6.994;2022-11-21T15:35:47;15.27;;;8.40;;
2021;SDS011;1015;49.756;6.994;2022-11-21T15:41:07;11.43;;;6.30;;
2021;SDS011;1015;49.756;6.994;2022-11-21T15:43:49;7.97;;;5.23;;
2021;SDS011;1015;49.756;6.994;2022-11-21T15:46:18;8.50;;;4.80;;
2021;SDS011;1015;49.756;6.994;2022-11-21T15:48:48;7.63;;;5.50;;
2021;SDS011;1015;49.756;6.994;2022-11-21T15:51:17;11.67;;;5.13;;
2021;SDS011;1015;49.756;6.994;2022-11-21T15:53:45;11.30;;;4.77;;
2021;SDS011;1015;49.756;6.994;2022-11-21T15:56:13;11.23;;;5.40;;
2021;SDS011;1015;49.756;6.994;2022-11-21T15:58:41;8.37;;;4.70;;
2021;SDS011;1015;49.756;6.994;2022-11-21T16:01:12;10.50;;;5.10;;
2021;SDS011;1015;49.756;6.994;2022-11-21T16:03:41;12.37;;;5.57;;
2021;SDS011;1015;49.756;6.994;2022-11-21T16:06:10;11.53;;;5.40;;
2021;SDS011;1015;49.756;6.994;2022-11-21T16:08:37;7.90;;;4.90;;